Time;durP1;ratioP1;P1;durP2;ratioP2;P2;SDS_P1;SDS_P2;PMS_P1;PMS_P2;Temp;Humidity;BMP_temperature;BMP_pressure;BME280_temperature;BME280_humidity;BME280_pressure;Samples;Min_cycle;Max_cycle;Signal;HPM_P1;HPM_P2
2021/08/16 00:00:08;;;;;;;;;;;26.20;74.00;;;;;;5226377;28;19928;-73
2021/08/16 00:02:41;;;;;;;;;;;26.10;74.30;;;;;;5233083;28;20425;-75
2021/08/16 00:05:14;;;;;;;;;;;26.10;74.50;;;;;;5233012;28;19932;-74
2021/08/16 00:07:46;;;;;;;;;;;26.10;74.80;;;;;;5234296;28;19924;-74
2021/08/16 00:10:19;;;;;;;;;;;26.10;75.10;;;;;;5233931;28;19925;-74
2021/08/16 00:12:51;;;;;;;;;;;26.00;75.20;;;;;;5220090;28;20655;-75
2021/08/16 00:15:23;;;;;;;;;;;26.00;75.30;;;;;;5236675;28;19940;-75
2021/08/16 00:17:59;;;;;;;;;;;26.00;75.50;;;;;;5234890;28;19940;-75
2021/08/16 00:20:31;;;;;;;;;;;26.00;75.70;;;;;;5235651;28;19931;-75
2021/08/16 00:23:03;;;;;;;;;;;26.00;75.80;;;;;;5238578;28;19925;-74
2021/08/16 00:25:36;;;;;;;;;;;26.00;75.90;;;;;;5236496;28;19931;-75
2021/08/16 00:28:08;;;;;;;;;;;26.00;76.00;;;;;;5230150;28;20661;-73
2021/08/16 00:30:40;;;;;;;;;;;26.00;76.00;;;;;;5235895;28;19925;-75
2021/08/16 00:33:12;;;;;;;;;;;26.00;75.90;;;;;;5231939;28;19932;-75
2021/08/16 00:35:44;;;;;;;;;;;26.00;76.00;;;;;;5235799;28;19932;-74
2021/08/16 00:38:16;;;;;;;;;;;25.90;76.00;;;;;;5235066;28;19924;-75
2021/08/16 00:40:49;;;;;;;;;;;25.90;75.90;;;;;;5235779;28;19933;-74
2021/08/16 00:43:21;;;;;;;;;;;25.90;76.00;;;;;;5231826;28;19924;-74
2021/08/16 00:45:54;;;;;;;;;;;25.90;75.90;;;;;;5230042;28;19936;-74
2021/08/16 00:48:27;;;;;;;;;;;25.90;75.70;;;;;;5230853;28;19933;-74
2021/08/16 00:51:00;;;;;;;;;;;25.80;75.20;;;;;;5229291;28;20389;-73
2021/08/16 00:53:33;;;;;;;;;;;25.80;74.80;;;;;;5229995;28;21028;-74
2021/08/16 00:56:06;;;;;;;;;;;25.80;74.40;;;;;;5229340;28;19929;-75
2021/08/16 00:58:38;;;;;;;;;;;25.80;74.10;;;;;;5230717;28;19936;-74
2021/08/16 01:01:11;;;;;;;;;;;25.70;73.90;;;;;;5231264;28;19924;-73
2021/08/16 01:03:43;;;;;;;;;;;25.70;73.70;;;;;;5230398;28;19979;-74
2021/08/16 01:06:15;;;;;;;;;;;25.70;73.80;;;;;;5231736;28;20394;-74
2021/08/16 01:08:48;;;;;;;;;;;25.70;73.60;;;;;;5213311;28;19932;-74
2021/08/16 01:11:21;;;;;;;;;;;25.70;73.60;;;;;;5228334;28;19925;-74
2021/08/16 01:13:53;;;;;;;;;;;25.70;73.50;;;;;;5231157;28;20389;-74
2021/08/16 01:16:26;;;;;;;;;;;25.60;73.60;;;;;;5202790;28;19928;-74
2021/08/16 01:18:58;;;;;;;;;;;25.60;73.60;;;;;;5232631;28;19932;-74
2021/08/16 01:21:30;;;;;;;;;;;25.60;73.70;;;;;;5219785;28;19928;-74
2021/08/16 01:24:02;;;;;;;;;;;25.60;74.00;;;;;;5235848;28;20539;-72
2021/08/16 01:26:34;;;;;;;;;;;25.60;74.10;;;;;;5221416;28;19932;-74
2021/08/16 01:29:22;;;;;;;;;;;25.60;74.20;;;;;;5237135;28;19925;-74
2021/08/16 01:32:02;;;;;;;;;;;25.60;74.30;;;;;;5238214;28;19948;-74
2021/08/16 01:34:34;;;;;;;;;;;25.60;74.30;;;;;;5232747;28;20310;-74
2021/08/16 01:37:08;;;;;;;;;;;25.60;74.30;;;;;;5230991;28;19925;-74
2021/08/16 01:39:40;;;;;;;;;;;25.60;74.40;;;;;;5230255;28;19931;-74
2021/08/16 01:42:12;;;;;;;;;;;25.50;74.30;;;;;;5231880;28;19928;-73
2021/08/16 01:44:45;;;;;;;;;;;25.50;74.50;;;;;;5217673;28;19924;-74
2021/08/16 01:47:17;;;;;;;;;;;25.50;74.50;;;;;;5227434;28;19925;-74
2021/08/16 01:49:49;;;;;;;;;;;25.50;74.50;;;;;;5228762;28;19928;-74
2021/08/16 01:52:21;;;;;;;;;;;25.40;74.50;;;;;;5234046;28;20369;-74
2021/08/16 01:54:53;;;;;;;;;;;25.40;74.50;;;;;;5232299;28;19924;-74
2021/08/16 01:57:26;;;;;;;;;;;25.50;74.50;;;;;;5234995;28;19935;-74
2021/08/16 01:59:58;;;;;;;;;;;25.40;74.50;;;;;;5226131;28;19932;-74
2021/08/16 02:02:30;;;;;;;;;;;25.40;74.50;;;;;;5228872;28;19948;-73
2021/08/16 02:05:02;;;;;;;;;;;25.40;74.60;;;;;;5213963;28;20251;-72
2021/08/16 02:07:35;;;;;;;;;;;25.40;74.60;;;;;;5229638;28;19924;-74
2021/08/16 02:10:07;;;;;;;;;;;25.40;74.70;;;;;;5238336;28;19944;-74
2021/08/16 02:12:39;;;;;;;;;;;25.40;74.70;;;;;;5233637;28;19928;-74
2021/08/16 02:15:12;;;;;;;;;;;25.40;74.70;;;;;;5215672;28;20400;-73
2021/08/16 02:17:44;;;;;;;;;;;25.40;74.80;;;;;;5231670;28;20410;-73
2021/08/16 02:20:16;;;;;;;;;;;25.40;74.80;;;;;;5232388;28;19929;-73
2021/08/16 02:22:48;;;;;;;;;;;25.40;74.90;;;;;;5233918;28;19932;-73
2021/08/16 02:25:21;;;;;;;;;;;25.40;75.00;;;;;;5235893;28;19932;-74
2021/08/16 02:27:54;;;;;;;;;;;25.40;75.00;;;;;;5234325;28;19925;-74
2021/08/16 02:30:27;;;;;;;;;;;25.40;75.00;;;;;;5235948;28;19928;-74
2021/08/16 02:32:59;;;;;;;;;;;25.40;75.10;;;;;;5235805;28;19936;-73
2021/08/16 02:35:32;;;;;;;;;;;25.40;75.10;;;;;;5241014;28;20312;-73
2021/08/16 02:38:04;;;;;;;;;;;25.40;75.00;;;;;;5235830;28;20401;-73
2021/08/16 02:40:36;;;;;;;;;;;25.30;74.90;;;;;;5235451;28;19925;-74
2021/08/16 02:43:08;;;;;;;;;;;25.30;74.80;;;;;;5246066;28;19924;-74
2021/08/16 02:45:40;;;;;;;;;;;25.30;74.80;;;;;;5236441;28;20302;-74
2021/08/16 02:48:13;;;;;;;;;;;25.30;74.80;;;;;;5225383;28;19939;-72
2021/08/16 02:50:45;;;;;;;;;;;25.30;74.80;;;;;;5236994;28;19929;-72
2021/08/16 02:53:17;;;;;;;;;;;25.30;74.80;;;;;;5239244;28;19924;-72
2021/08/16 02:55:49;;;;;;;;;;;25.20;74.70;;;;;;5236245;28;19924;-71
2021/08/16 02:58:23;;;;;;;;;;;25.20;74.50;;;;;;5235016;28;19932;-72
2021/08/16 03:00:55;;;;;;;;;;;25.20;74.50;;;;;;5237635;28;20373;-72
2021/08/16 03:03:28;;;;;;;;;;;25.20;74.40;;;;;;5225824;28;19932;-72
2021/08/16 03:06:03;;;;;;;;;;;25.20;74.20;;;;;;5237113;28;19935;-71
2021/08/16 03:08:36;;;;;;;;;;;25.20;74.10;;;;;;5238572;28;19924;-72
2021/08/16 03:11:08;;;;;;;;;;;25.20;74.10;;;;;;5237519;28;19925;-72
2021/08/16 03:13:41;;;;;;;;;;;25.20;74.20;;;;;;5241920;28;20493;-72
2021/08/16 03:16:13;;;;;;;;;;;25.20;74.30;;;;;;5246970;28;20390;-72
2021/08/16 03:18:45;;;;;;;;;;;25.20;74.40;;;;;;5245200;28;19956;-71
2021/08/16 03:21:17;;;;;;;;;;;25.20;74.20;;;;;;5239264;28;20408;-71
2021/08/16 03:23:49;;;;;;;;;;;25.20;74.10;;;;;;5239152;28;19929;-71
2021/08/16 03:26:22;;;;;;;;;;;25.20;74.00;;;;;;5237316;28;19935;-71
2021/08/16 03:28:54;;;;;;;;;;;25.10;74.00;;;;;;5246147;28;19933;-71
2021/08/16 03:31:26;;;;;;;;;;;25.10;73.90;;;;;;5239856;28;19931;-72
2021/08/16 03:33:58;;;;;;;;;;;25.10;73.80;;;;;;5224239;28;19947;-72
2021/08/16 03:36:31;;;;;;;;;;;25.10;74.40;;;;;;5227260;28;19931;-72
2021/08/16 03:39:03;;;;;;;;;;;25.10;73.80;;;;;;5234097;28;19925;-73
2021/08/16 03:41:35;;;;;;;;;;;25.10;74.50;;;;;;5235662;28;20564;-75
2021/08/16 03:44:08;;;;;;;;;;;25.10;73.70;;;;;;5231984;28;19936;-75
2021/08/16 03:46:40;;;;;;;;;;;25.10;73.80;;;;;;5226575;28;20051;-75
2021/08/16 03:49:13;;;;;;;;;;;25.10;73.80;;;;;;5228934;28;19925;-75
2021/08/16 03:51:45;;;;;;;;;;;25.10;73.80;;;;;;5230420;28;19931;-75
2021/08/16 03:54:17;;;;;;;;;;;25.10;73.70;;;;;;5217167;28;19943;-76
2021/08/16 03:56:50;;;;;;;;;;;25.10;73.60;;;;;;5229299;28;20305;-75
2021/08/16 03:59:22;;;;;;;;;;;25.10;73.50;;;;;;5229448;28;20553;-75
2021/08/16 04:01:54;;;;;;;;;;;25.10;73.40;;;;;;5227915;28;19932;-75
2021/08/16 04:04:27;;;;;;;;;;;25.10;73.40;;;;;;5232675;28;19936;-75
2021/08/16 04:06:59;;;;;;;;;;;25.10;73.40;;;;;;5208306;28;19933;-75
2021/08/16 04:09:31;;;;;;;;;;;25.00;73.30;;;;;;5227404;28;19925;-75
2021/08/16 04:12:04;;;;;;;;;;;25.00;73.30;;;;;;5227881;28;19925;-75
2021/08/16 04:14:36;;;;;;;;;;;25.00;73.30;;;;;;5226283;28;19925;-75
2021/08/16 04:17:08;;;;;;;;;;;25.00;73.20;;;;;;5226280;28;19935;-76
2021/08/16 04:19:40;;;;;;;;;;;25.00;73.20;;;;;;5224256;28;19925;-76
2021/08/16 04:22:12;;;;;;;;;;;25.00;73.20;;;;;;5225740;28;19931;-75
2021/08/16 04:24:45;;;;;;;;;;;25.00;73.20;;;;;;5205957;28;19928;-75
2021/08/16 04:27:17;;;;;;;;;;;25.00;73.10;;;;;;5225035;28;19931;-76
2021/08/16 04:29:49;;;;;;;;;;;25.00;73.20;;;;;;5226222;28;19936;-76
2021/08/16 04:32:21;;;;;;;;;;;25.00;73.20;;;;;;5225079;28;19928;-76
2021/08/16 04:34:53;;;;;;;;;;;25.00;73.10;;;;;;5227144;28;19932;-76
2021/08/16 04:37:25;;;;;;;;;;;25.00;73.10;;;;;;5212511;28;19928;-76
2021/08/16 04:39:58;;;;;;;;;;;25.00;73.00;;;;;;5228670;28;19929;-74
2021/08/16 04:42:30;;;;;;;;;;;25.00;73.00;;;;;;5230226;28;19935;-75
2021/08/16 04:45:03;;;;;;;;;;;25.00;73.00;;;;;;5226582;28;19924;-75
2021/08/16 04:47:36;;;;;;;;;;;25.00;72.90;;;;;;5227498;28;19930;-75
2021/08/16 04:50:08;;;;;;;;;;;25.00;72.90;;;;;;5216341;28;19955;-74
2021/08/16 04:52:41;;;;;;;;;;;25.00;72.90;;;;;;5207557;28;19929;-74
2021/08/16 04:55:13;;;;;;;;;;;25.00;73.00;;;;;;5212558;28;19936;-75
2021/08/16 04:57:45;;;;;;;;;;;25.00;73.10;;;;;;5226024;28;19929;-75
2021/08/16 05:00:24;;;;;;;;;;;25.00;73.30;;;;;;5219554;28;20888;-75
2021/08/16 05:02:56;;;;;;;;;;;25.00;73.40;;;;;;5200212;28;19951;-75
2021/08/16 05:05:30;;;;;;;;;;;25.00;73.50;;;;;;5221113;28;20317;-75
2021/08/16 05:08:02;;;;;;;;;;;25.00;73.50;;;;;;5215769;28;19924;-74
2021/08/16 05:10:35;;;;;;;;;;;25.00;73.50;;;;;;5202909;28;20539;-77
2021/08/16 05:13:07;;;;;;;;;;;25.10;73.60;;;;;;5185584;28;20546;-76
2021/08/16 05:15:43;;;;;;;;;;;25.10;73.60;;;;;;5219076;28;20398;-77
2021/08/16 05:18:15;;;;;;;;;;;25.10;73.60;;;;;;5200607;28;19928;-76
2021/08/16 05:20:48;;;;;;;;;;;25.10;73.60;;;;;;5201918;28;20255;-77
2021/08/16 05:23:20;;;;;;;;;;;25.20;73.70;;;;;;5217270;28;19932;-76
2021/08/16 05:25:52;;;;;;;;;;;25.10;73.50;;;;;;5179314;28;19932;-76
2021/08/16 05:28:25;;;;;;;;;;;25.10;73.50;;;;;;5211001;28;19925;-75
2021/08/16 05:30:57;;;;;;;;;;;25.20;73.60;;;;;;5215567;28;19928;-75
2021/08/16 05:33:29;;;;;;;;;;;25.20;73.50;;;;;;5216476;28;19925;-77
2021/08/16 05:36:01;;;;;;;;;;;25.20;73.50;;;;;;5197169;28;19936;-77
2021/08/16 05:38:34;;;;;;;;;;;25.20;73.40;;;;;;5209414;28;19928;-74
2021/08/16 05:41:06;;;;;;;;;;;25.20;73.50;;;;;;5210344;28;19933;-75
2021/08/16 05:43:38;;;;;;;;;;;25.20;73.40;;;;;;5218141;28;19940;-76
2021/08/16 05:46:10;;;;;;;;;;;25.20;73.40;;;;;;5212306;28;19935;-75
2021/08/16 05:48:43;;;;;;;;;;;25.20;73.40;;;;;;5198042;28;20278;-75
2021/08/16 05:51:15;;;;;;;;;;;25.30;73.40;;;;;;5217099;28;19932;-75
2021/08/16 05:53:47;;;;;;;;;;;25.30;73.40;;;;;;5211171;28;19939;-73
2021/08/16 05:56:19;;;;;;;;;;;25.30;73.30;;;;;;5209699;28;20495;-74
2021/08/16 05:58:52;;;;;;;;;;;25.30;73.10;;;;;;5207843;28;19940;-74
2021/08/16 06:01:24;;;;;;;;;;;25.30;72.80;;;;;;5218308;28;19924;-73
2021/08/16 06:03:56;;;;;;;;;;;25.30;72.80;;;;;;5216361;28;19929;-74
2021/08/16 06:06:28;;;;;;;;;;;25.30;72.70;;;;;;5211416;28;19929;-73
2021/08/16 06:09:01;;;;;;;;;;;25.30;72.60;;;;;;5216853;28;19937;-74
2021/08/16 06:11:33;;;;;;;;;;;25.30;72.50;;;;;;5212330;28;19928;-74
2021/08/16 06:14:06;;;;;;;;;;;25.40;72.50;;;;;;5195044;28;20358;-73
2021/08/16 06:16:38;;;;;;;;;;;25.40;72.50;;;;;;5213913;28;19935;-73
2021/08/16 06:19:10;;;;;;;;;;;25.40;72.60;;;;;;5209689;28;19940;-73
2021/08/16 06:21:43;;;;;;;;;;;25.40;72.60;;;;;;5183861;28;20752;-73
2021/08/16 06:24:15;;;;;;;;;;;25.40;72.70;;;;;;5206742;28;20484;-73
2021/08/16 06:26:47;;;;;;;;;;;25.40;72.70;;;;;;5213654;28;20370;-73
2021/08/16 06:29:19;;;;;;;;;;;25.40;72.80;;;;;;5212102;28;20536;-75
2021/08/16 06:31:51;;;;;;;;;;;25.40;72.90;;;;;;5217999;28;20392;-75
2021/08/16 06:34:24;;;;;;;;;;;25.40;73.00;;;;;;5213491;28;20384;-77
2021/08/16 06:36:56;;;;;;;;;;;25.40;73.00;;;;;;5180550;28;19932;-75
2021/08/16 06:39:29;;;;;;;;;;;25.40;73.10;;;;;;5203930;28;20302;-77
2021/08/16 06:42:01;;;;;;;;;;;25.40;73.20;;;;;;5199706;28;19925;-75
2021/08/16 06:44:33;;;;;;;;;;;25.40;73.20;;;;;;5215250;28;19933;-77
2021/08/16 06:47:06;;;;;;;;;;;25.40;73.80;;;;;;5200076;28;20393;-76
2021/08/16 06:49:38;;;;;;;;;;;25.40;73.80;;;;;;5197403;28;19933;-77
2021/08/16 06:52:10;;;;;;;;;;;25.40;73.80;;;;;;5206062;28;19974;-75
2021/08/16 06:54:42;;;;;;;;;;;25.50;74.00;;;;;;5213661;28;19959;-76
2021/08/16 06:57:14;;;;;;;;;;;25.50;73.90;;;;;;5188866;28;19932;-75
2021/08/16 06:59:47;;;;;;;;;;;25.50;73.90;;;;;;5213360;28;19932;-76
2021/08/16 07:02:19;;;;;;;;;;;25.50;73.90;;;;;;5217333;28;19932;-74
2021/08/16 07:04:51;;;;;;;;;;;25.50;73.80;;;;;;5210561;28;19956;-75
2021/08/16 07:07:23;;;;;;;;;;;25.50;73.80;;;;;;5197163;28;19925;-76
2021/08/16 07:09:56;;;;;;;;;;;25.50;73.60;;;;;;5200160;28;19925;-75
